createdAt,value
2022-11-09T00:00:35.667Z,98872.13
2022-11-09T00:03:04.017Z,98859.25
2022-11-09T00:05:32.319Z,98863.69
2022-11-09T00:08:01.240Z,98876.88
2022-11-09T00:10:29.603Z,98877.53
2022-11-09T00:12:59.625Z,98880.50
2022-11-09T00:15:29.175Z,98875.81
2022-11-09T00:17:57.647Z,98880.78
2022-11-09T00:20:26.451Z,98881.59
2022-11-09T00:22:54.738Z,98890.16
2022-11-09T00:25:23.456Z,98884.78
2022-11-09T00:27:52.863Z,98888.00
2022-11-09T00:30:23.412Z,98906.03
2022-11-09T00:32:51.882Z,98894.31
2022-11-09T00:35:20.567Z,98891.03
2022-11-09T00:37:49.178Z,98887.69
2022-11-09T00:40:23.248Z,98891.69
2022-11-09T00:42:51.707Z,98891.31
2022-11-09T00:45:20.789Z,98894.03
2022-11-09T00:47:51.220Z,98900.13
2022-11-09T00:50:20.169Z,98891.06
2022-11-09T00:52:49.739Z,98905.84
2022-11-09T00:55:21.324Z,98900.88
2022-11-09T00:57:50.766Z,98909.06
2022-11-09T01:00:21.306Z,98909.13
2022-11-09T01:02:52.865Z,98909.91
2022-11-09T01:05:30.986Z,98900.34
2022-11-09T01:07:59.380Z,98913.28
2022-11-09T01:10:28.390Z,98922.94
2022-11-09T01:12:57.085Z,98927.53
2022-11-09T01:15:25.709Z,98926.22
2022-11-09T01:17:55.920Z,98932.91
2022-11-09T01:20:24.513Z,98926.28
2022-11-09T01:22:53.737Z,98928.25
2022-11-09T01:25:23.497Z,98936.78
2022-11-09T01:27:52.586Z,98932.00
2022-11-09T01:30:22.073Z,98945.13
2022-11-09T01:32:51.802Z,98957.41
2022-11-09T01:35:22.425Z,98950.22
2022-11-09T01:37:51.578Z,98955.66
2022-11-09T01:40:28.631Z,98960.13
2022-11-09T01:42:59.253Z,98954.84
2022-11-09T01:45:33.863Z,98966.91
2022-11-09T01:48:11.065Z,98977.72
2022-11-09T01:50:45.939Z,98979.50
2022-11-09T01:53:21.145Z,98971.78
2022-11-09T01:55:58.216Z,98985.00
2022-11-09T01:58:32.173Z,98990.91
2022-11-09T02:01:03.368Z,98994.97
2022-11-09T02:03:39.199Z,99000.38
2022-11-09T02:06:12.998Z,98997.88
2022-11-09T02:08:43.746Z,99007.75
2022-11-09T02:11:18.135Z,99013.94
2022-11-09T02:13:53.356Z,99003.03
2022-11-09T02:16:22.987Z,99004.50
2022-11-09T02:18:55.208Z,98995.34
2022-11-09T02:21:27.552Z,99020.31
2022-11-09T02:23:56.504Z,99014.22
2022-11-09T02:26:31.360Z,99012.84
2022-11-09T02:29:04.897Z,99026.56
2022-11-09T02:31:37.743Z,99029.47
2022-11-09T02:34:10.047Z,99031.53
2022-11-09T02:36:40.098Z,99035.16
2022-11-09T02:39:08.912Z,99044.84
2022-11-09T02:41:45.076Z,99042.22
2022-11-09T02:44:14.997Z,99053.44
2022-11-09T02:46:43.605Z,99056.75
2022-11-09T02:49:12.436Z,99063.13
2022-11-09T02:51:42.372Z,99060.06
2022-11-09T02:54:11.380Z,99067.94
2022-11-09T02:56:40.492Z,99074.06
2022-11-09T02:59:09.099Z,99078.19
2022-11-09T03:01:37.917Z,99087.88
2022-11-09T03:04:08.210Z,99084.88
2022-11-09T03:06:39.846Z,99093.56
2022-11-09T03:09:24.679Z,99092.19
2022-11-09T03:11:53.361Z,99096.59
2022-11-09T03:14:21.943Z,99098.84
2022-11-09T03:16:51.083Z,99109.38
2022-11-09T03:19:19.936Z,99102.56
2022-11-09T03:21:48.330Z,99110.88
2022-11-09T03:24:18.251Z,99112.28
2022-11-09T03:26:47.018Z,99106.47
2022-11-09T03:29:15.534Z,99114.47
2022-11-09T03:31:44.168Z,99114.47
2022-11-09T03:34:12.550Z,99117.41
2022-11-09T03:36:40.888Z,99108.09
2022-11-09T03:39:09.286Z,99102.97
2022-11-09T03:41:39.522Z,99119.47
2022-11-09T03:44:08.408Z,99118.75
2022-11-09T03:46:37.170Z,99131.22
2022-11-09T03:49:05.734Z,99122.50
2022-11-09T03:51:34.499Z,99125.41
2022-11-09T03:54:03.655Z,99126.53
2022-11-09T03:56:32.289Z,99129.59
2022-11-09T03:59:03.317Z,99132.22
2022-11-09T04:01:32.012Z,99139.41
2022-11-09T04:04:00.783Z,99139.69
2022-11-09T04:06:29.954Z,99131.94
2022-11-09T04:08:58.946Z,99126.66
2022-11-09T04:11:29.855Z,99132.22
2022-11-09T04:13:58.411Z,99136.22
2022-11-09T04:16:28.488Z,99144.00
2022-11-09T04:18:57.217Z,99150.91
2022-11-09T04:21:25.592Z,99153.94
2022-11-09T04:23:54.195Z,99162.09
2022-11-09T04:26:23.492Z,99165.19
2022-11-09T04:29:11.337Z,99162.41
2022-11-09T04:31:42.848Z,99180.66
2022-11-09T04:34:11.169Z,99174.31
2022-11-09T04:36:58.009Z,99175.97
2022-11-09T04:39:26.688Z,99187.06
2022-11-09T04:41:55.069Z,99189.81
2022-11-09T04:44:23.789Z,99203.78
2022-11-09T04:46:53.888Z,99195.78
2022-11-09T04:49:22.500Z,99200.72
2022-11-09T04:51:51.286Z,99190.22
2022-11-09T04:54:20.460Z,99194.13
2022-11-09T04:56:49.942Z,99188.28
2022-11-09T04:59:18.665Z,99193.84
2022-11-09T05:01:47.430Z,99220.53
2022-11-09T05:04:17.985Z,99210.03
2022-11-09T05:06:46.832Z,99194.25
2022-11-09T05:09:15.506Z,99197.44
2022-11-09T05:11:44.138Z,99197.84
2022-11-09T05:14:13.521Z,99196.47
2022-11-09T05:16:42.750Z,99189.41
2022-11-09T05:19:11.500Z,99186.91
2022-11-09T05:21:41.412Z,99184.00
2022-11-09T05:24:13.240Z,99179.31
2022-11-09T05:26:44.129Z,99196.59
2022-11-09T05:29:13.788Z,99190.09
2022-11-09T05:31:47.743Z,99195.63
2022-11-09T05:34:19.568Z,99206.97
2022-11-09T05:36:49.950Z,99208.09
2022-11-09T05:39:18.493Z,99214.28
2022-11-09T05:41:47.216Z,99206.41
2022-11-09T05:44:16.011Z,99209.75
2022-11-09T05:46:44.984Z,99207.94
2022-11-09T05:49:13.411Z,99214.19
2022-11-09T05:51:41.905Z,99218.72
2022-11-09T05:54:12.112Z,99244.63
2022-11-09T05:56:40.643Z,99231.88
2022-11-09T05:59:10.558Z,99253.22
2022-11-09T06:01:39.410Z,99257.25
2022-11-09T06:04:08.260Z,99259.44
2022-11-09T06:06:37.152Z,99263.75
2022-11-09T06:09:05.657Z,99277.31
2022-11-09T06:11:35.875Z,99277.00
2022-11-09T06:14:04.275Z,99284.06
2022-11-09T06:16:33.976Z,99259.72
2022-11-09T06:19:03.025Z,99285.31
2022-11-09T06:21:31.576Z,99298.59
2022-11-09T06:24:00.835Z,99292.38
2022-11-09T06:26:29.549Z,99299.19
2022-11-09T06:29:00.396Z,99304.72
2022-11-09T06:31:29.073Z,99311.91
2022-11-09T06:33:57.672Z,99314.25
2022-11-09T06:36:26.254Z,99314.72
2022-11-09T06:38:54.984Z,99300.44
2022-11-09T06:41:23.947Z,99328.28
2022-11-09T06:43:52.574Z,99324.81
2022-11-09T06:46:22.410Z,99316.63
2022-11-09T06:48:54.493Z,99312.91
2022-11-09T06:51:23.111Z,99313.56
2022-11-09T06:53:51.915Z,99322.16
2022-11-09T06:56:20.827Z,99325.22
2022-11-09T06:58:49.795Z,99346.28
2022-11-09T07:01:23.255Z,99348.44
2022-11-09T07:03:53.247Z,99347.53
2022-11-09T07:06:21.719Z,99367.16
2022-11-09T07:08:50.097Z,99358.44
2022-11-09T07:11:19.808Z,99367.59
2022-11-09T07:13:56.189Z,99369.78
2022-11-09T07:16:28.033Z,99379.19
2022-11-09T07:18:56.513Z,99378.50
2022-11-09T07:21:25.593Z,99386.53
2022-11-09T07:23:53.884Z,99406.63
2022-11-09T07:26:22.270Z,99408.69
2022-11-09T07:28:50.818Z,99399.28
2022-11-09T07:31:20.269Z,99413.97
2022-11-09T07:33:51.473Z,99406.13
2022-11-09T07:36:23.121Z,99406.00
2022-11-09T07:38:52.687Z,99414.44
2022-11-09T07:41:21.106Z,99424.97
2022-11-09T07:43:49.768Z,99427.88
2022-11-09T07:46:18.888Z,99431.50
2022-11-09T07:48:50.356Z,99443.25
2022-11-09T07:51:20.274Z,99439.50
2022-11-09T07:53:50.281Z,99450.88
2022-11-09T07:56:18.847Z,99448.53
2022-11-09T07:58:47.426Z,99464.75
2022-11-09T08:01:16.970Z,99458.34
2022-11-09T08:03:45.445Z,99465.53
2022-11-09T08:06:18.522Z,99456.81
2022-11-09T08:08:49.695Z,99455.03
2022-11-09T08:11:18.375Z,99473.16
2022-11-09T08:13:46.942Z,99480.63
2022-11-09T08:16:15.708Z,99483.38
2022-11-09T08:18:44.960Z,99493.06
2022-11-09T08:21:14.933Z,99489.34
2022-11-09T08:23:43.511Z,99506.34
2022-11-09T08:26:13.138Z,99512.19
2022-11-09T08:28:41.935Z,99528.69
2022-11-09T08:31:10.993Z,99539.81
2022-11-09T08:33:42.436Z,99585.38
2022-11-09T08:36:13.638Z,99615.53
2022-11-09T08:38:44.451Z,99627.16
2022-11-09T08:41:14.382Z,99631.25
2022-11-09T08:43:43.382Z,99643.59
2022-11-09T08:46:11.865Z,99645.22
2022-11-09T08:48:40.487Z,99652.03
2022-11-09T08:51:09.679Z,99653.38
2022-11-09T08:53:38.535Z,99653.38
2022-11-09T08:56:12.546Z,99655.16
2022-11-09T08:58:41.761Z,99665.91
2022-11-09T09:01:16.449Z,99669.72
2022-11-09T09:03:45.723Z,99678.75
2022-11-09T09:06:14.398Z,99678.91
2022-11-09T09:08:42.891Z,99688.81
2022-11-09T09:11:12.866Z,99683.44
2022-11-09T09:13:43.547Z,99690.38
2022-11-09T09:16:14.432Z,99701.84
2022-11-09T09:18:42.906Z,99700.50
2022-11-09T09:21:13.665Z,99711.28
2022-11-09T09:23:42.170Z,99698.97
2022-11-09T09:26:10.662Z,99697.91
2022-11-09T09:28:41.009Z,99705.19
2022-11-09T09:31:12.047Z,99715.22
2022-11-09T09:33:44.077Z,99723.34
2022-11-09T09:36:19.577Z,99727.41
2022-11-09T09:38:48.718Z,99730.84
2022-11-09T09:41:23.676Z,99743.63
2022-11-09T09:43:58.259Z,99762.84
2022-11-09T09:46:32.691Z,99750.44
2022-11-09T09:49:07.428Z,99768.25
2022-11-09T09:51:40.929Z,99755.44
2022-11-09T09:54:14.935Z,99753.06
2022-11-09T09:56:47.418Z,99747.31
2022-11-09T09:59:25.784Z,99750.41
2022-11-09T10:01:57.735Z,99757.56
2022-11-09T10:04:34.682Z,99754.91
2022-11-09T10:07:11.917Z,99765.50
2022-11-09T10:10:05.143Z,99774.66
2022-11-09T10:12:42.803Z,99789.34
2022-11-09T10:15:21.926Z,99792.81
2022-11-09T10:18:03.530Z,99800.03
2022-11-09T10:20:52.543Z,99806.13
2022-11-09T10:23:42.063Z,99812.97
2022-11-09T10:26:19.667Z,99816.41
2022-11-09T10:29:14.935Z,99827.72
2022-11-09T10:31:45.683Z,99824.69
2022-11-09T10:34:18.134Z,99835.16
2022-11-09T10:36:53.638Z,99830.09
2022-11-09T10:39:25.673Z,99833.31
2022-11-09T10:41:56.843Z,99832.69
2022-11-09T10:44:26.606Z,99839.38
2022-11-09T10:47:09.893Z,99834.97
2022-11-09T10:49:41.798Z,99838.97
2022-11-09T10:52:46.148Z,99836.19
2022-11-09T10:55:25.524Z,99845.94
2022-11-09T10:58:01.577Z,99837.63
2022-11-09T11:00:30.583Z,99840.28
2022-11-09T11:03:12.713Z,99831.00
2022-11-09T11:05:41.376Z,99822.59
2022-11-09T11:08:39.216Z,99826.38
2022-11-09T11:11:33.119Z,99829.97
2022-11-09T11:14:27.733Z,99822.03
2022-11-09T11:16:56.503Z,99810.38
2022-11-09T11:19:34.627Z,99818.84
2022-11-09T11:22:23.292Z,99809.28
2022-11-09T11:24:59.332Z,99823.28
2022-11-09T11:27:37.295Z,99819.97
2022-11-09T11:30:12.193Z,99824.81
2022-11-09T11:32:43.106Z,99827.16
2022-11-09T11:35:23.782Z,99830.19
2022-11-09T11:38:04.515Z,99830.88
2022-11-09T11:40:40.073Z,99814.41
2022-11-09T11:43:25.482Z,99818.66
2022-11-09T11:46:04.123Z,99821.28
2022-11-09T11:49:00.576Z,99827.00
2022-11-09T11:51:40.905Z,99824.69
2022-11-09T11:54:20.625Z,99805.28
2022-11-09T11:56:53.892Z,99808.31
2022-11-09T11:59:50.123Z,99829.13
2022-11-09T12:02:58.737Z,99807.75
2022-11-09T12:05:55.485Z,99803.31
2022-11-09T12:08:31.936Z,99807.94
2022-11-09T12:11:11.931Z,99806.19
2022-11-09T12:13:56.676Z,99810.75
2022-11-09T12:16:32.001Z,99812.78
2022-11-09T12:19:23.936Z,99814.75
2022-11-09T12:22:02.680Z,99811.47
2022-11-09T12:24:41.692Z,99812.59
2022-11-09T12:27:41.820Z,99831.59
2022-11-09T12:30:16.876Z,99822.72
2022-11-09T12:32:52.489Z,99832.75
2022-11-09T12:35:29.950Z,99832.78
2022-11-09T12:38:04.567Z,99836.63
2022-11-09T12:40:40.708Z,99835.88
2022-11-09T12:43:18.560Z,99839.63
2022-11-09T12:45:47.258Z,99834.66
2022-11-09T12:48:25.707Z,99844.47
2022-11-09T12:50:55.227Z,99842.25
2022-11-09T12:53:29.002Z,99843.97
2022-11-09T12:56:04.675Z,99848.44
2022-11-09T12:58:37.006Z,99847.16
2022-11-09T13:01:07.942Z,99854.03
2022-11-09T13:03:39.957Z,99860.25
2022-11-09T13:06:18.008Z,99848.81
2022-11-09T13:09:00.319Z,99851.00
2022-11-09T13:11:38.139Z,99846.56
2022-11-09T13:14:32.338Z,99846.63
2022-11-09T13:17:03.215Z,99843.94
2022-11-09T13:19:52.609Z,99847.53
2022-11-09T13:22:57.991Z,99851.38
2022-11-09T13:25:51.525Z,99832.47
2022-11-09T13:28:46.707Z,99838.97
2022-11-09T13:31:15.420Z,99848.00
2022-11-09T13:33:43.828Z,99846.38
2022-11-09T13:36:19.396Z,99851.84
2022-11-09T13:39:09.808Z,99857.13
2022-11-09T13:41:46.052Z,99843.34
2022-11-09T13:44:26.467Z,99841.59
2022-11-09T13:46:56.047Z,99846.22
2022-11-09T13:49:46.468Z,99850.44
2022-11-09T13:52:58.091Z,99856.88
2022-11-09T13:55:34.592Z,99852.84
2022-11-09T13:58:08.571Z,99859.53
2022-11-09T14:00:38.593Z,99851.91
2022-11-09T14:03:21.251Z,99865.59
2022-11-09T14:05:54.049Z,99860.50
2022-11-09T14:08:25.427Z,99852.38
2022-11-09T14:11:07.894Z,99856.06
2022-11-09T14:14:13.048Z,99858.13
2022-11-09T14:16:54.738Z,99858.34
2022-11-09T14:19:31.782Z,99872.56
2022-11-09T14:22:00.469Z,99869.69
2022-11-09T14:24:32.995Z,99879.25
2022-11-09T14:27:14.794Z,99880.69
2022-11-09T14:29:51.635Z,99890.31
2022-11-09T14:32:34.115Z,99885.72
2022-11-09T14:35:24.928Z,99859.41
2022-11-09T14:37:55.987Z,99870.16
2022-11-09T14:40:28.280Z,99903.88
2022-11-09T14:43:02.600Z,99885.63
2022-11-09T14:45:31.064Z,99888.97
2022-11-09T14:48:04.170Z,99884.41
2022-11-09T14:50:37.864Z,99895.69
2022-11-09T14:53:07.879Z,99893.63
2022-11-09T14:55:42.488Z,99899.09
2022-11-09T14:58:19.242Z,99921.38
2022-11-09T15:01:08.523Z,99928.09
2022-11-09T15:03:38.629Z,99947.09
2022-11-09T15:06:10.544Z,99942.94
2022-11-09T15:08:53.630Z,99938.47
2022-11-09T15:11:22.935Z,99936.69
2022-11-09T15:13:51.349Z,99956.09
2022-11-09T15:16:23.502Z,99953.63
2022-11-09T15:18:53.429Z,99954.22
2022-11-09T15:21:36.000Z,99956.56
2022-11-09T15:24:06.877Z,99970.66
2022-11-09T15:26:38.903Z,99964.41
2022-11-09T15:29:28.401Z,99988.09
2022-11-09T15:32:03.288Z,99987.53
2022-11-09T15:34:39.020Z,99983.78
2022-11-09T15:37:21.616Z,99974.56
2022-11-09T15:39:50.751Z,99976.53
2022-11-09T15:42:20.049Z,99966.22
2022-11-09T15:44:53.573Z,99975.00
2022-11-09T15:47:28.902Z,99968.34
2022-11-09T15:49:59.536Z,99971.25
2022-11-09T15:52:29.111Z,99978.94
2022-11-09T15:54:58.357Z,99977.66
2022-11-09T15:57:27.032Z,99986.72
2022-11-09T15:59:55.453Z,99985.59
2022-11-09T16:02:24.020Z,99982.69
2022-11-09T16:04:53.306Z,99992.41
2022-11-09T16:07:24.333Z,99987.13
2022-11-09T16:09:53.646Z,99977.53
2022-11-09T16:12:22.100Z,99992.41
2022-11-09T16:14:50.634Z,99996.16
2022-11-09T16:17:19.213Z,99995.91
2022-11-09T16:19:47.603Z,100008.16
2022-11-09T16:22:16.394Z,100014.56
2022-11-09T16:24:47.561Z,100003.56
2022-11-09T16:27:43.467Z,100024.31
2022-11-09T16:30:05.480Z,100009.28
2022-11-09T16:32:33.928Z,99999.22
2022-11-09T16:35:25.694Z,100011.63
2022-11-09T16:37:55.440Z,100000.06
2022-11-09T16:40:26.092Z,100014.97
2022-11-09T16:42:54.969Z,100014.69
2022-11-09T16:45:25.912Z,100010.53
2022-11-09T16:47:58.836Z,100004.94
2022-11-09T16:50:27.411Z,100008.81
2022-11-09T16:52:56.143Z,100012.88
2022-11-09T16:55:26.483Z,100030.53
2022-11-09T16:57:55.484Z,100017.88
2022-11-09T17:00:33.722Z,100036.81
2022-11-09T17:03:13.518Z,100027.06
2022-11-09T17:05:42.939Z,100020.66
2022-11-09T17:08:12.629Z,100017.72
2022-11-09T17:10:46.811Z,100014.94
2022-11-09T17:13:15.528Z,100007.72
2022-11-09T17:15:45.702Z,100016.75
2022-11-09T17:18:14.218Z,100006.91
2022-11-09T17:20:44.840Z,100009.81
2022-11-09T17:23:13.417Z,100002.84
2022-11-09T17:25:43.655Z,100011.06
2022-11-09T17:28:11.915Z,99999.94
2022-11-09T17:30:42.911Z,100008.16
2022-11-09T17:33:11.594Z,100003.00
2022-11-09T17:35:40.660Z,100010.78
2022-11-09T17:38:09.129Z,100003.69
2022-11-09T17:40:37.447Z,100003.94
2022-11-09T17:43:07.609Z,100017.72
2022-11-09T17:45:37.478Z,100018.03
2022-11-09T17:48:06.757Z,100018.16
2022-11-09T17:50:36.078Z,100028.88
2022-11-09T17:53:04.712Z,100020.94
2022-11-09T17:55:33.232Z,100020.78
2022-11-09T17:58:02.025Z,100006.91
2022-11-09T18:00:32.488Z,100015.09
2022-11-09T18:03:00.994Z,100011.88
2022-11-09T18:05:29.563Z,100007.72
2022-11-09T18:07:58.354Z,100000.06
2022-11-09T18:10:26.751Z,100026.91
2022-11-09T18:12:55.601Z,100021.22
2022-11-09T18:15:23.970Z,100022.75
2022-11-09T18:17:55.470Z,100031.53
2022-11-09T18:20:24.275Z,100033.19
2022-11-09T18:22:53.580Z,100034.03
2022-11-09T18:28:49.944Z,100022.91
2022-11-09T18:31:26.829Z,100020.53
2022-11-09T18:34:05.570Z,100023.16
2022-11-09T18:36:48.873Z,100009.13
2022-11-09T18:54:06.562Z,100039.84
2022-11-09T18:56:39.827Z,100032.22
2022-11-09T18:59:16.246Z,100029.72
2022-11-09T19:01:45.016Z,100037.63
2022-11-09T19:04:16.147Z,100041.13
2022-11-09T19:06:44.860Z,100040.16
2022-11-09T19:09:38.771Z,100030.56
2022-11-09T19:12:11.255Z,100034.16
2022-11-09T19:14:41.986Z,100033.19
2022-11-09T19:17:14.767Z,100024.94
2022-11-09T19:19:43.783Z,100023.03
2022-11-09T19:22:19.287Z,100029.44
2022-11-09T19:24:49.166Z,100010.63
2022-11-09T19:27:18.618Z,100026.38
2022-11-09T19:29:47.372Z,100022.06
2022-11-09T19:32:16.018Z,100023.13
2022-11-09T19:34:46.917Z,100048.25
2022-11-09T19:37:16.257Z,100050.16
2022-11-09T19:39:48.481Z,100061.03
2022-11-09T19:42:16.866Z,100038.47
2022-11-09T19:44:45.203Z,100064.63
2022-11-09T19:47:13.571Z,100064.22
2022-11-09T19:49:42.470Z,100061.47
2022-11-09T19:52:10.819Z,100060.91
2022-11-09T19:54:39.246Z,100059.66
2022-11-09T19:57:10.221Z,100070.66
2022-11-09T19:59:38.874Z,100073.16
2022-11-09T20:02:08.202Z,100081.22
2022-11-09T20:04:36.877Z,100097.94
2022-11-09T20:07:05.558Z,100081.41
2022-11-09T20:09:34.420Z,100094.88
2022-11-09T20:12:21.710Z,100106.88
2022-11-09T20:14:51.648Z,100095.44
2022-11-09T20:17:20.033Z,100090.72
2022-11-09T20:19:48.797Z,100122.34
2022-11-09T20:22:17.753Z,100112.72
2022-11-09T20:24:46.573Z,100126.38
2022-11-09T20:27:17.298Z,100129.41
2022-11-09T20:29:45.688Z,100135.69
2022-11-09T20:32:20.432Z,100131.75
2022-11-09T20:34:50.325Z,100126.38
2022-11-09T20:37:19.417Z,100132.06
2022-11-09T20:39:47.912Z,100125.06
2022-11-09T20:42:16.372Z,100146.81
2022-11-09T20:44:44.779Z,100128.19
2022-11-09T20:47:15.002Z,100144.75
2022-11-09T20:49:43.646Z,100133.34
2022-11-09T20:52:12.067Z,100139.47
2022-11-09T20:54:41.692Z,100136.50
2022-11-09T20:57:12.358Z,100141.28
2022-11-09T20:59:41.410Z,100145.75
2022-11-09T21:02:15.111Z,100133.75
2022-11-09T21:04:45.097Z,100146.56
2022-11-09T21:07:13.838Z,100157.16
2022-11-09T21:09:42.227Z,100145.59
2022-11-09T21:12:22.829Z,100132.50
2022-11-09T21:14:54.312Z,100135.16
2022-11-09T21:17:22.987Z,100139.59
2022-11-09T21:19:52.767Z,100137.94
2022-11-09T21:22:22.160Z,100128.59
2022-11-09T21:25:07.986Z,100140.97
2022-11-09T21:27:54.493Z,100141.41
2022-11-09T21:30:24.398Z,100129.13
2022-11-09T21:32:56.494Z,100129.53
2022-11-09T21:35:29.772Z,100131.78
2022-11-09T21:37:59.002Z,100139.97
2022-11-09T21:40:27.530Z,100124.81
2022-11-09T21:42:56.844Z,100120.88
2022-11-09T21:45:25.210Z,100122.31
2022-11-09T21:47:55.931Z,100144.31
2022-11-09T21:50:46.284Z,100142.91
2022-11-09T21:53:17.277Z,100138.47
2022-11-09T21:55:48.761Z,100129.13
2022-11-09T21:58:22.733Z,100147.22
2022-11-09T22:00:51.272Z,100140.13
2022-11-09T22:03:19.987Z,100132.84
2022-11-09T22:05:51.898Z,100134.66
2022-11-09T22:08:20.547Z,100128.69
2022-11-09T22:10:49.160Z,100148.63
2022-11-09T22:13:35.389Z,100144.19
2022-11-09T22:16:08.078Z,100141.53
2022-11-09T22:18:55.390Z,100148.34
2022-11-09T22:21:26.267Z,100151.41
2022-11-09T22:23:54.800Z,100151.00
2022-11-09T22:26:23.483Z,100145.28
2022-11-09T22:28:52.008Z,100155.72
2022-11-09T22:31:20.967Z,100148.22
2022-11-09T22:33:49.467Z,100131.03
2022-11-09T22:36:19.541Z,100154.47
2022-11-09T22:38:49.658Z,100139.13
2022-11-09T22:41:18.222Z,100158.91
2022-11-09T22:43:46.850Z,100167.81
2022-11-09T22:46:19.092Z,100147.03
2022-11-09T22:48:47.569Z,100152.47
2022-11-09T22:51:19.980Z,100161.53
2022-11-09T22:53:52.776Z,100160.94
2022-11-09T22:56:21.565Z,100155.22
2022-11-09T22:58:53.449Z,100158.03
2022-11-09T23:01:22.725Z,100155.34
2022-11-09T23:03:53.565Z,100156.41
2022-11-09T23:06:24.741Z,100171.28
2022-11-09T23:08:55.475Z,100155.38
2022-11-09T23:11:25.470Z,100171.56
2022-11-09T23:13:56.498Z,100165.56
2022-11-09T23:16:25.446Z,100167.97
2022-11-09T23:18:55.347Z,100169.34
2022-11-09T23:21:26.729Z,100203.66
2022-11-09T23:23:59.766Z,100169.19
2022-11-09T23:26:27.991Z,100180.94
2022-11-09T23:28:57.515Z,100176.72
2022-11-09T23:31:27.294Z,100198.06
2022-11-09T23:33:58.174Z,100190.38
2022-11-09T23:36:28.044Z,100176.28
2022-11-09T23:38:57.963Z,100171.56
2022-11-09T23:41:26.468Z,100175.19
2022-11-09T23:43:57.583Z,100174.88
2022-11-09T23:46:26.003Z,100150.16
2022-11-09T23:48:54.344Z,100157.28
2022-11-09T23:51:23.476Z,100159.25
2022-11-09T23:53:52.273Z,100161.91
2022-11-09T23:56:22.701Z,100160.31
2022-11-09T23:58:51.885Z,100177.38
